createdAt,value
2018-03-23T00:02:09.889Z,19.70
2018-03-23T00:04:38.384Z,20.67
2018-03-23T00:07:06.822Z,20.87
2018-03-23T00:09:35.284Z,21.40
2018-03-23T00:12:03.785Z,20.97
2018-03-23T00:14:32.229Z,22.47
2018-03-23T00:17:00.679Z,21.47
2018-03-23T00:19:29.171Z,25.63
2018-03-23T00:21:57.618Z,22.03
2018-03-23T00:24:26.058Z,23.23
2018-03-23T00:26:54.553Z,22.23
2018-03-23T00:29:22.985Z,23.77
2018-03-23T00:31:51.426Z,22.40
2018-03-23T00:34:19.901Z,21.00
2018-03-23T00:36:48.339Z,15.57
2018-03-23T00:39:16.777Z,16.30
2018-03-23T00:41:45.275Z,14.60
2018-03-23T00:44:13.718Z,15.33
2018-03-23T00:46:42.153Z,14.70
2018-03-23T00:49:10.634Z,15.77
2018-03-23T00:51:39.069Z,15.60
2018-03-23T00:54:07.526Z,16.37
2018-03-23T00:56:36.022Z,17.00
2018-03-23T00:59:04.505Z,18.13
2018-03-23T01:01:32.941Z,17.53
2018-03-23T01:04:01.426Z,16.80
2018-03-23T01:06:29.859Z,14.93
2018-03-23T01:08:58.325Z,17.13
2018-03-23T01:11:26.806Z,16.17
2018-03-23T01:13:55.240Z,16.33
2018-03-23T01:16:23.681Z,15.20
2018-03-23T01:18:52.199Z,14.70
2018-03-23T01:21:20.657Z,13.07
2018-03-23T01:23:49.102Z,13.50
2018-03-23T01:26:17.603Z,13.23
2018-03-23T01:28:46.058Z,13.47
2018-03-23T01:31:14.510Z,11.97
2018-03-23T01:33:42.989Z,9.93
2018-03-23T01:36:11.456Z,7.23
2018-03-23T01:38:39.889Z,7.10
2018-03-23T01:41:08.362Z,6.93
2018-03-23T01:43:36.796Z,6.47
2018-03-23T01:46:05.241Z,6.87
2018-03-23T01:48:33.730Z,7.90
2018-03-23T01:51:02.200Z,6.93
2018-03-23T01:53:43.390Z,8.27
2018-03-23T01:56:11.876Z,7.80
2018-03-23T01:58:40.317Z,8.20
2018-03-23T02:01:08.849Z,7.80
2018-03-23T02:03:37.295Z,8.33
2018-03-23T02:06:05.725Z,8.20
2018-03-23T02:08:34.204Z,8.47
2018-03-23T02:11:02.639Z,8.73
2018-03-23T02:13:31.070Z,9.73
2018-03-23T02:15:59.573Z,9.20
2018-03-23T02:18:28.002Z,9.07
2018-03-23T02:20:56.462Z,9.33
2018-03-23T02:23:25.144Z,8.47
2018-03-23T02:25:53.583Z,8.83
2018-03-23T02:28:22.018Z,9.37
2018-03-23T02:30:50.506Z,9.27
2018-03-23T02:33:18.947Z,8.53
2018-03-23T02:35:47.387Z,8.17
2018-03-23T02:38:15.871Z,8.03
2018-03-23T02:40:44.302Z,7.53
2018-03-23T02:43:12.754Z,8.03
2018-03-23T02:45:41.258Z,6.83
2018-03-23T02:48:09.697Z,7.40
2018-03-23T02:50:38.134Z,8.07
2018-03-23T02:53:06.631Z,8.20
2018-03-23T02:55:35.076Z,6.83
2018-03-23T02:58:03.506Z,7.40
2018-03-23T03:00:31.986Z,7.20
2018-03-23T03:03:00.442Z,7.47
2018-03-23T03:05:28.872Z,7.10
2018-03-23T03:07:57.373Z,7.93
2018-03-23T03:10:25.807Z,6.20
2018-03-23T03:12:54.246Z,6.73
2018-03-23T03:15:22.780Z,6.83
2018-03-23T03:17:51.207Z,6.90
2018-03-23T03:20:19.637Z,6.93
2018-03-23T03:22:48.113Z,7.57
2018-03-23T03:25:16.562Z,6.53
2018-03-23T03:27:44.995Z,7.03
2018-03-23T03:30:13.470Z,6.80
2018-03-23T03:32:41.914Z,6.57
2018-03-23T03:35:10.350Z,7.37
2018-03-23T03:37:38.846Z,7.23
2018-03-23T03:40:07.309Z,7.80
2018-03-23T03:42:35.743Z,7.57
2018-03-23T03:47:34.561Z,7.40
2018-03-23T03:50:02.969Z,7.20
2018-03-23T03:52:31.372Z,7.73
2018-03-23T03:54:59.833Z,6.83
2018-03-23T03:57:28.246Z,6.53
2018-03-23T03:59:56.641Z,7.20
2018-03-23T04:02:25.089Z,6.73
2018-03-23T04:04:53.486Z,6.53
2018-03-23T04:07:21.882Z,5.47
2018-03-23T04:09:50.329Z,5.23
2018-03-23T04:12:18.722Z,5.63
2018-03-23T04:14:47.122Z,6.43
2018-03-23T04:17:15.572Z,6.00
2018-03-23T04:19:44.009Z,5.93
2018-03-23T04:22:12.398Z,5.70
2018-03-23T04:24:40.853Z,6.13
2018-03-23T04:27:09.249Z,6.17
2018-03-23T04:29:37.662Z,5.80
2018-03-23T04:32:06.113Z,6.07
2018-03-23T04:34:34.506Z,5.63
2018-03-23T04:37:02.910Z,5.83
2018-03-23T04:39:31.629Z,6.50
2018-03-23T04:42:00.022Z,5.57
2018-03-23T04:44:28.417Z,5.90
2018-03-23T04:46:56.878Z,6.00
2018-03-23T04:49:25.281Z,6.27
2018-03-23T04:51:53.677Z,6.17
2018-03-23T04:54:22.136Z,6.50
2018-03-23T04:56:50.534Z,6.43
2018-03-23T04:59:18.933Z,6.03
2018-03-23T05:01:47.405Z,6.70
2018-03-23T05:04:15.818Z,6.40
2018-03-23T05:06:44.216Z,6.67
2018-03-23T05:09:12.654Z,6.07
2018-03-23T05:11:41.065Z,5.83
2018-03-23T05:14:09.474Z,6.57
2018-03-23T05:16:37.921Z,6.57
2018-03-23T05:19:06.322Z,7.03
2018-03-23T05:21:34.728Z,6.90
2018-03-23T05:24:03.178Z,6.60
2018-03-23T05:26:31.580Z,7.10
2018-03-23T05:28:59.977Z,7.57
2018-03-23T05:31:28.418Z,7.87
2018-03-23T05:33:56.821Z,7.70
2018-03-23T05:36:25.218Z,8.50
2018-03-23T05:38:53.661Z,7.63
2018-03-23T05:41:22.057Z,8.83
2018-03-23T05:43:50.458Z,7.33
2018-03-23T05:46:18.977Z,8.17
2018-03-23T05:48:47.339Z,7.87
2018-03-23T05:51:15.735Z,8.67
2018-03-23T05:53:44.195Z,7.87
2018-03-23T05:56:12.594Z,7.60
2018-03-23T05:58:40.990Z,9.37
2018-03-23T06:01:09.430Z,8.07
2018-03-23T06:03:37.830Z,8.60
2018-03-23T06:06:06.229Z,6.60
2018-03-23T06:08:34.682Z,7.87
2018-03-23T06:11:03.079Z,6.83
2018-03-23T06:13:31.478Z,7.10
2018-03-23T06:15:59.954Z,7.17
2018-03-23T06:18:28.358Z,7.97
2018-03-23T06:20:56.761Z,8.03
2018-03-23T06:23:25.197Z,7.90
2018-03-23T06:25:53.594Z,8.23
2018-03-23T06:28:21.990Z,7.53
2018-03-23T06:30:50.426Z,7.93
2018-03-23T06:33:18.834Z,8.93
2018-03-23T06:35:47.229Z,7.70
2018-03-23T06:38:15.670Z,7.80
2018-03-23T06:40:44.069Z,7.73
2018-03-23T06:43:12.472Z,7.30
2018-03-23T06:45:40.917Z,8.57
2018-03-23T06:48:09.318Z,8.57
2018-03-23T06:50:37.729Z,7.10
2018-03-23T06:53:06.185Z,7.80
2018-03-23T06:55:34.590Z,7.67
2018-03-23T06:58:02.986Z,7.63
2018-03-23T07:00:31.437Z,7.80
2018-03-23T07:02:59.843Z,7.47
2018-03-23T07:05:28.242Z,6.90
2018-03-23T07:07:56.692Z,7.80
2018-03-23T07:10:25.090Z,8.47
2018-03-23T07:12:53.498Z,10.70
2018-03-23T07:15:21.957Z,9.03
2018-03-23T07:17:50.358Z,8.50
2018-03-23T07:20:18.754Z,7.47
2018-03-23T07:22:47.210Z,8.03
2018-03-23T07:25:15.630Z,8.30
2018-03-23T07:27:44.041Z,8.60
2018-03-23T07:30:12.493Z,8.40
2018-03-23T07:32:40.903Z,8.40
2018-03-23T07:35:09.305Z,10.20
2018-03-23T07:37:37.759Z,9.57
2018-03-23T07:40:06.181Z,9.37
2018-03-23T07:42:34.581Z,8.93
2018-03-23T07:45:03.030Z,12.33
2018-03-23T07:47:31.426Z,9.33
2018-03-23T07:49:59.826Z,9.17
2018-03-23T07:52:28.265Z,9.90
2018-03-23T07:54:56.665Z,9.23
2018-03-23T07:57:25.074Z,10.53
2018-03-23T07:59:53.534Z,9.97
2018-03-23T08:02:21.938Z,9.90
2018-03-23T08:04:50.336Z,9.60
2018-03-23T08:07:18.786Z,9.07
2018-03-23T08:09:47.182Z,9.90
2018-03-23T08:12:15.585Z,9.50
2018-03-23T08:14:44.026Z,9.70
2018-03-23T08:17:12.434Z,10.30
2018-03-23T08:19:40.837Z,8.80
2018-03-23T08:22:09.286Z,9.47
2018-03-23T08:24:37.682Z,9.77
2018-03-23T08:27:06.085Z,9.77
2018-03-23T08:29:34.526Z,8.70
2018-03-23T08:32:02.929Z,9.73
2018-03-23T08:34:31.326Z,8.23
2018-03-23T08:36:59.778Z,8.33
2018-03-23T08:39:28.190Z,9.30
2018-03-23T08:41:56.617Z,8.93
2018-03-23T08:44:25.074Z,8.17
2018-03-23T08:46:53.469Z,8.30
2018-03-23T08:49:21.871Z,9.80
2018-03-23T08:51:50.329Z,8.50
2018-03-23T08:54:18.730Z,9.57
2018-03-23T08:56:47.146Z,8.67
2018-03-23T08:59:15.605Z,10.57
2018-03-23T09:01:44.006Z,9.20
2018-03-23T09:04:12.410Z,9.57
2018-03-23T09:06:40.866Z,9.30
2018-03-23T09:09:09.269Z,9.30
2018-03-23T09:11:37.683Z,10.53
2018-03-23T09:14:06.150Z,11.97
2018-03-23T09:16:34.558Z,11.47
2018-03-23T09:19:02.966Z,11.27
2018-03-23T09:21:31.414Z,10.90
2018-03-23T09:23:59.828Z,11.57
2018-03-23T09:26:28.229Z,11.50
2018-03-23T09:28:56.682Z,11.27
2018-03-23T09:31:25.085Z,10.13
2018-03-23T09:33:53.493Z,11.70
2018-03-23T09:36:21.942Z,11.33
2018-03-23T09:38:50.350Z,11.07
2018-03-23T09:41:18.754Z,10.50
2018-03-23T09:43:47.225Z,11.33
2018-03-23T09:46:15.638Z,11.80
2018-03-23T09:48:44.050Z,10.17
2018-03-23T09:51:12.505Z,10.60
2018-03-23T09:53:40.906Z,9.87
2018-03-23T09:56:09.310Z,11.33
2018-03-23T09:58:37.821Z,9.70
2018-03-23T10:01:06.229Z,10.27
2018-03-23T10:03:34.679Z,11.17
2018-03-23T10:06:03.141Z,10.33
2018-03-23T10:08:31.542Z,9.77
2018-03-23T10:10:59.942Z,9.30
2018-03-23T10:13:28.386Z,8.70
2018-03-23T10:15:56.788Z,8.70
2018-03-23T10:18:25.222Z,8.60
2018-03-23T10:20:53.695Z,8.50
2018-03-23T10:23:22.097Z,8.20
2018-03-23T10:25:50.521Z,7.90
2018-03-23T10:28:18.963Z,7.80
2018-03-23T10:30:47.361Z,7.57
2018-03-23T10:33:15.758Z,7.47
2018-03-23T10:35:44.214Z,6.47
2018-03-23T10:38:12.611Z,5.70
2018-03-23T10:40:41.006Z,6.60
2018-03-23T10:43:09.466Z,7.00
2018-03-23T10:45:37.950Z,6.27
2018-03-23T10:48:06.346Z,6.40
2018-03-23T10:50:34.787Z,6.20
2018-03-23T10:53:03.207Z,5.73
2018-03-23T10:55:31.625Z,5.13
2018-03-23T10:58:00.119Z,5.23
2018-03-23T11:00:34.076Z,5.60
2018-03-23T11:03:02.525Z,5.33
2018-03-23T11:05:30.946Z,5.27
2018-03-23T11:07:59.341Z,5.73
2018-03-23T11:10:27.774Z,6.03
2018-03-23T11:12:56.167Z,5.60
2018-03-23T11:15:24.583Z,5.97
2018-03-23T11:17:53.105Z,6.03
2018-03-23T11:20:21.504Z,5.63
2018-03-23T11:22:49.894Z,5.77
2018-03-23T11:25:18.350Z,5.00
2018-03-23T11:27:46.746Z,5.40
2018-03-23T11:30:15.162Z,5.87
2018-03-23T11:32:43.604Z,5.90
2018-03-23T11:35:11.997Z,5.63
2018-03-23T11:37:40.398Z,6.27
2018-03-23T11:40:08.854Z,5.47
2018-03-23T11:42:37.256Z,5.90
2018-03-23T11:45:05.674Z,5.70
2018-03-23T11:47:34.126Z,6.40
2018-03-23T11:50:02.522Z,5.90
2018-03-23T11:52:30.917Z,6.50
2018-03-23T11:54:59.402Z,5.70
2018-03-23T11:57:27.807Z,6.80
2018-03-23T11:59:56.202Z,6.73
2018-03-23T12:02:24.667Z,6.90
2018-03-23T12:04:53.078Z,6.93
2018-03-23T12:07:21.486Z,7.10
2018-03-23T12:09:49.937Z,6.70
2018-03-23T12:12:18.333Z,7.40
2018-03-23T12:14:46.743Z,7.00
2018-03-23T12:17:15.202Z,7.13
2018-03-23T12:19:43.593Z,7.20
2018-03-23T12:22:11.992Z,6.70
2018-03-23T12:24:40.491Z,7.67
2018-03-23T12:27:08.858Z,6.87
2018-03-23T12:29:37.259Z,7.23
2018-03-23T12:32:05.732Z,7.93
2018-03-23T12:34:34.138Z,7.50
2018-03-23T12:37:02.542Z,8.23
2018-03-23T12:39:30.994Z,6.87
2018-03-23T12:41:59.389Z,7.37
2018-03-23T12:44:27.793Z,6.90
2018-03-23T12:46:56.254Z,7.50
2018-03-23T12:49:24.657Z,7.10
2018-03-23T12:51:53.062Z,8.20
2018-03-23T12:54:21.518Z,8.43
2018-03-23T12:56:49.923Z,8.40
2018-03-23T12:59:18.337Z,7.73
2018-03-23T13:01:46.804Z,8.53
2018-03-23T13:04:15.210Z,7.87
2018-03-23T13:06:43.625Z,7.70
2018-03-23T13:09:12.086Z,7.90
2018-03-23T13:11:40.506Z,7.00
2018-03-23T13:14:08.901Z,8.23
2018-03-23T13:16:37.351Z,7.57
2018-03-23T13:19:05.757Z,8.97
2018-03-23T13:21:34.163Z,7.23
2018-03-23T13:24:02.717Z,7.47
2018-03-23T13:26:31.126Z,8.10
2018-03-23T13:28:59.534Z,7.47
2018-03-23T13:31:27.993Z,8.47
2018-03-23T13:33:56.397Z,7.77
2018-03-23T13:36:24.802Z,8.53
2018-03-23T13:38:53.266Z,8.30
2018-03-23T13:41:21.673Z,8.40
2018-03-23T13:43:50.090Z,8.23
2018-03-23T13:46:18.559Z,8.20
2018-03-23T13:48:46.971Z,8.07
2018-03-23T13:51:15.377Z,8.43
2018-03-23T13:53:43.834Z,8.30
2018-03-23T13:56:12.286Z,7.60
2018-03-23T13:58:46.110Z,7.67
2018-03-23T14:01:20.014Z,8.40
2018-03-23T14:03:48.470Z,8.53
2018-03-23T14:06:16.870Z,7.70
2018-03-23T14:08:45.286Z,8.23
2018-03-23T14:11:13.750Z,9.57
2018-03-23T14:13:42.159Z,8.20
2018-03-23T14:16:10.566Z,8.43
2018-03-23T14:18:39.174Z,8.57
2018-03-23T14:21:07.586Z,8.90
2018-03-23T14:23:36.000Z,8.50
2018-03-23T14:26:04.541Z,8.53
2018-03-23T14:28:32.982Z,8.27
2018-03-23T14:31:01.386Z,7.73
2018-03-23T14:33:29.837Z,8.90
2018-03-23T14:35:58.246Z,8.50
2018-03-23T14:38:25.940Z,8.73
2018-03-23T14:40:54.176Z,8.53
2018-03-23T14:43:22.582Z,8.00
2018-03-23T14:45:50.981Z,8.00
2018-03-23T14:48:19.433Z,7.77
2018-03-23T14:50:47.838Z,7.83
2018-03-23T14:53:16.238Z,8.33
2018-03-23T14:55:44.702Z,7.33
2018-03-23T14:58:13.102Z,8.20
2018-03-23T15:00:41.503Z,8.47
2018-03-23T15:03:10.062Z,8.70
2018-03-23T15:05:38.465Z,8.67
2018-03-23T15:08:06.866Z,8.07
2018-03-23T15:10:35.312Z,8.97
2018-03-23T15:13:03.738Z,7.93
2018-03-23T15:15:32.138Z,8.37
2018-03-23T15:18:00.599Z,9.13
2018-03-23T15:20:28.997Z,8.70
2018-03-23T15:22:57.403Z,8.70
2018-03-23T15:25:25.852Z,9.20
2018-03-23T15:27:54.250Z,8.27
2018-03-23T15:30:22.645Z,9.20
2018-03-23T15:32:51.094Z,8.60
2018-03-23T15:35:19.498Z,10.63
2018-03-23T15:37:47.897Z,13.30
2018-03-23T15:40:16.362Z,12.93
2018-03-23T15:42:44.765Z,12.53
2018-03-23T15:45:13.174Z,13.47
2018-03-23T15:47:41.622Z,12.67
2018-03-23T15:50:10.030Z,13.90
2018-03-23T15:52:38.442Z,13.87
2018-03-23T15:55:06.898Z,13.73
2018-03-23T15:57:35.306Z,12.97
2018-03-23T16:00:03.750Z,13.57
2018-03-23T16:02:32.213Z,14.50
2018-03-23T16:05:00.624Z,12.37
2018-03-23T16:07:29.040Z,12.47
2018-03-23T16:09:57.490Z,12.57
2018-03-23T16:12:25.898Z,12.80
2018-03-23T16:14:54.311Z,12.27
2018-03-23T16:17:22.794Z,11.57
2018-03-23T16:19:51.201Z,10.80
2018-03-23T16:22:19.627Z,11.40
2018-03-23T16:24:48.079Z,10.80
2018-03-23T16:27:16.489Z,11.50
2018-03-23T16:29:44.902Z,11.80
2018-03-23T16:32:13.358Z,11.37
2018-03-23T16:34:41.757Z,10.37
2018-03-23T16:37:10.168Z,10.57
2018-03-23T16:39:38.626Z,11.90
2018-03-23T16:42:07.052Z,11.47
2018-03-23T16:44:35.463Z,11.37
2018-03-23T16:47:03.941Z,11.70
2018-03-23T16:49:32.346Z,11.73
2018-03-23T16:52:00.766Z,11.10
2018-03-23T16:54:29.239Z,10.70
2018-03-23T16:56:57.650Z,11.33
2018-03-23T16:59:26.061Z,10.73
2018-03-23T17:01:54.518Z,10.40
2018-03-23T17:04:22.922Z,11.37
2018-03-23T17:06:51.355Z,11.10
2018-03-23T17:09:19.813Z,10.53
2018-03-23T17:11:48.222Z,10.77
2018-03-23T17:14:16.638Z,10.47
2018-03-23T17:16:45.089Z,11.03
2018-03-23T17:19:13.497Z,12.13
2018-03-23T17:21:41.906Z,10.70
2018-03-23T17:24:10.366Z,11.30
2018-03-23T17:26:38.775Z,11.30
2018-03-23T17:29:07.177Z,11.70
2018-03-23T17:31:35.634Z,11.63
2018-03-23T17:34:04.038Z,12.50
2018-03-23T17:36:32.443Z,12.03
2018-03-23T17:39:00.909Z,12.10
2018-03-23T17:41:29.315Z,11.50
2018-03-23T17:43:57.718Z,11.53
2018-03-23T17:46:26.178Z,11.57
2018-03-23T17:48:54.617Z,10.83
2018-03-23T17:51:23.029Z,12.80
2018-03-23T17:53:51.485Z,13.30
2018-03-23T17:56:19.897Z,13.03
2018-03-23T17:58:48.313Z,13.90
2018-03-23T18:01:16.770Z,13.80
2018-03-23T18:03:45.177Z,13.80
2018-03-23T18:06:13.589Z,16.07
2018-03-23T18:08:42.034Z,19.07
2018-03-23T18:11:10.438Z,15.43
2018-03-23T18:13:38.842Z,16.60
2018-03-23T18:16:07.305Z,13.17
2018-03-23T18:18:35.711Z,13.10
2018-03-23T18:21:04.128Z,14.07
2018-03-23T18:23:32.589Z,14.33
2018-03-23T18:26:00.993Z,13.73
2018-03-23T18:28:29.416Z,13.53
2018-03-23T18:30:57.886Z,13.97
2018-03-23T18:33:26.302Z,14.80
2018-03-23T18:35:54.714Z,14.17
2018-03-23T18:38:23.178Z,14.37
2018-03-23T18:40:51.586Z,14.23
2018-03-23T18:43:19.994Z,14.77
2018-03-23T18:45:48.465Z,13.37
2018-03-23T18:48:16.874Z,14.03
2018-03-23T18:50:45.285Z,14.63
2018-03-23T18:53:13.736Z,14.77
2018-03-23T18:55:42.146Z,14.33
2018-03-23T18:58:10.554Z,16.07
2018-03-23T19:00:39.003Z,15.90
2018-03-23T19:03:07.417Z,16.43
2018-03-23T19:05:35.833Z,17.17
2018-03-23T19:08:04.342Z,16.93
2018-03-23T19:10:32.750Z,18.60
2018-03-23T19:13:01.164Z,15.67
2018-03-23T19:15:29.650Z,18.70
2018-03-23T19:17:58.062Z,16.10
2018-03-23T19:20:26.468Z,17.47
2018-03-23T19:22:54.939Z,18.03
2018-03-23T19:25:23.346Z,21.13
2018-03-23T19:27:51.753Z,24.33
2018-03-23T19:30:20.237Z,26.93
2018-03-23T19:32:48.653Z,32.87
2018-03-23T19:35:17.064Z,29.90
2018-03-23T19:37:45.521Z,23.73
2018-03-23T19:40:13.937Z,27.80
2018-03-23T19:42:42.353Z,28.67
2018-03-23T19:45:10.878Z,27.77
2018-03-23T19:47:39.262Z,30.10
2018-03-23T19:50:07.666Z,22.70
2018-03-23T19:52:36.118Z,17.57
2018-03-23T19:55:04.547Z,16.37
2018-03-23T19:57:32.978Z,17.67
2018-03-23T20:00:01.726Z,15.60
2018-03-23T20:02:30.130Z,16.07
2018-03-23T20:04:58.539Z,15.27
2018-03-23T20:07:27.005Z,16.30
2018-03-23T20:09:55.413Z,14.73
2018-03-23T20:12:23.850Z,16.03
2018-03-23T20:14:52.306Z,15.83
2018-03-23T20:17:26.182Z,15.43
2018-03-23T20:19:54.755Z,14.60
2018-03-23T20:22:23.170Z,15.17
2018-03-23T20:24:51.578Z,15.03
2018-03-23T20:27:25.547Z,16.30
2018-03-23T20:29:53.955Z,17.17
2018-03-23T20:32:28.061Z,17.07
2018-03-23T20:34:56.462Z,16.60
2018-03-23T20:37:24.873Z,16.43
2018-03-23T20:39:53.322Z,16.20
2018-03-23T20:42:21.737Z,19.50
2018-03-23T20:44:50.153Z,18.27
2018-03-23T20:47:18.618Z,19.27
2018-03-23T20:49:47.034Z,19.57
2018-03-23T20:52:15.445Z,16.70
2018-03-23T20:54:43.931Z,19.57
2018-03-23T20:57:12.342Z,18.53
2018-03-23T20:59:40.750Z,18.80
2018-03-23T21:02:09.214Z,18.23
2018-03-23T21:04:37.650Z,18.73
2018-03-23T21:07:06.059Z,18.17
2018-03-23T21:09:34.533Z,18.80
2018-03-23T21:12:02.937Z,19.23
2018-03-23T21:14:31.370Z,18.97
2018-03-23T21:16:59.830Z,19.47
2018-03-23T21:19:28.250Z,20.77
2018-03-23T21:21:56.657Z,19.97
2018-03-23T21:24:25.106Z,20.80
2018-03-23T21:26:53.509Z,21.40
2018-03-23T21:29:21.918Z,20.27
2018-03-23T21:31:50.370Z,22.33
2018-03-23T21:34:18.780Z,21.23
2018-03-23T21:36:47.201Z,19.83
2018-03-23T21:39:15.660Z,22.27
2018-03-23T21:41:44.064Z,19.60
2018-03-23T21:44:12.618Z,22.50
2018-03-23T21:46:41.066Z,21.30
2018-03-23T21:49:09.497Z,21.87
2018-03-23T21:51:37.928Z,20.37
2018-03-23T21:54:06.430Z,21.37
2018-03-23T21:56:34.833Z,21.57
2018-03-23T21:59:03.278Z,22.27
2018-03-23T22:01:31.766Z,22.67
2018-03-23T22:04:00.175Z,22.73
2018-03-23T22:06:28.581Z,22.17
2018-03-23T22:08:57.036Z,21.93
2018-03-23T22:11:25.441Z,22.60
2018-03-23T22:13:53.845Z,23.40
2018-03-23T22:16:22.308Z,22.43
2018-03-23T22:18:50.724Z,22.03
2018-03-23T22:21:19.134Z,22.53
2018-03-23T22:23:47.597Z,25.97
2018-03-23T22:26:16.006Z,25.47
2018-03-23T22:28:44.426Z,30.63
2018-03-23T22:31:12.879Z,29.93
2018-03-23T22:33:41.285Z,25.87
2018-03-23T22:36:09.701Z,26.67
2018-03-23T22:38:38.184Z,26.23
2018-03-23T22:41:06.869Z,25.30
2018-03-23T22:43:35.274Z,25.20
2018-03-23T22:46:03.729Z,26.83
2018-03-23T22:48:32.137Z,24.17
2018-03-23T22:51:00.545Z,24.20
2018-03-23T22:53:28.993Z,24.30
2018-03-23T22:55:57.406Z,24.33
2018-03-23T22:58:25.806Z,24.70
2018-03-23T23:00:54.282Z,24.10
2018-03-23T23:03:22.726Z,24.83
2018-03-23T23:05:51.142Z,23.43
2018-03-23T23:08:19.596Z,25.03
2018-03-23T23:10:48.006Z,24.63
2018-03-23T23:13:16.414Z,23.00
2018-03-23T23:15:44.868Z,23.87
2018-03-23T23:18:13.278Z,23.50
2018-03-23T23:20:41.691Z,23.30
2018-03-23T23:23:10.141Z,23.93
2018-03-23T23:25:38.549Z,21.67
2018-03-23T23:28:06.953Z,22.83
2018-03-23T23:30:35.414Z,24.03
2018-03-23T23:33:03.818Z,22.03
2018-03-23T23:35:32.220Z,24.43
2018-03-23T23:38:00.775Z,23.80
2018-03-23T23:40:29.226Z,24.30
2018-03-23T23:42:57.639Z,24.57
2018-03-23T23:45:26.089Z,23.00
2018-03-23T23:47:54.494Z,25.10
2018-03-23T23:50:22.898Z,24.73
2018-03-23T23:52:51.346Z,24.47
2018-03-23T23:55:19.760Z,23.17
2018-03-23T23:57:48.169Z,24.73
